Terminal Aerodrome Forecast
Issued by NWS Sioux Falls, SD

Home | Current Version | Previous Version | Graphics & Text | Print | Product List | Glossary Off
Versions: 1 2 3 4 5 6 7 8 9 10 11 12 13 14

112
FTUS43 KFSD 172335
TAFFSD
TAF
KFSD 172335Z 1800/1824 07012KT P6SM SCT120 SCT250
     FM180800 04011KT 5SM -SN OVC020
     FM181100 01010KT 3/4SM -SN OVC008
     FM181700 35013G21KT 3SM -SN OVC010
     FM181900 34013KT 3SM -RASN OVC008
     FM182100 33009KT P6SM OVC010=

USA.gov is the U.S. government's official web portal to all federal, state and local government web resources and services.